Antikeros — SYPX — position and weather

sailwx.info

Track history (hours):
 
Tides and Currents Weather Stations Pressure Air Temp Water Temp Dewpoint Dewpoint Depression Visibility Wind Speed Wind Dir Waves Ship Positions

Antikeros

Last reported at 2017-Sep-22 01:30 UTC. Time now 2017-Sep-24 05:00 UTC.
Position N 38°54' W 030°39'.

Length 228 m; draft 12.1 m.

Type: Tanker. MMSI: 240680000.

Date/timePositionNaut miles runAvg speedWind from/ knotsBaromVisibWave heightAir tempDewpointWater temp
2017-Sep-22 01:30N 38°54' W 030°39'812.0
2017-Sep-22 00:51N 38°58' W 030°30'412.3
2017-Sep-22 00:31N 39°00' W 030°26'612.6
2017-Sep-22 00:00N 39°03' W 030°19'612.5
2017-Sep-21 23:30N 39°07' W 030°12'612.3
2017-Sep-21 23:00N 39°10' W 030°05'612.6
2017-Sep-21 22:30N 39°13' W 029°58'612.9
2017-Sep-21 22:00N 39°17' W 029°51'613.0
2017-Sep-21 21:30N 39°20' W 029°44'612.8
2017-Sep-21 21:00N 39°23' W 029°37'612.8
2017-Sep-21 20:30N 39°26' W 029°30'612.9
2017-Sep-21 20:00N 39°30' W 029°23'612.7
2017-Sep-21 19:30N 39°33' W 029°15'612.8
2017-Sep-21 19:00N 39°36' W 029°08'612.5
2017-Sep-21 18:30N 39°39' W 029°01'612.6
2017-Sep-21 18:00N 39°43' W 028°54'612.8
2017-Sep-21 17:30N 39°46' W 028°47'612.5
2017-Sep-21 17:00N 39°49' W 028°40'713.0
2017-Sep-21 16:30N 39°52' W 028°33'713.0
2017-Sep-21 15:58N 39°56' W 028°25'612.7
2017-Sep-21 15:30N 39°59' W 028°18'1112.3
2017-Sep-21 14:36N 40°05' W 028°06'  
2017-Sep-17 17:03N 49°46' W 004°10'112.2
2017-Sep-17 17:00N 49°46' W 004°09'612.1
2017-Sep-17 16:31N 49°47' W 003°60'510.9
2017-Sep-17 16:01N 49°49' W 003°52'611.2
2017-Sep-17 15:31N 49°50' W 003°43'612.0
2017-Sep-17 15:01N 49°52' W 003°34'612.2
2017-Sep-17 14:30N 49°53' W 003°25'612.6
2017-Sep-17 14:00N 49°55' W 003°15'713.0
2017-Sep-17 13:30N 49°57' W 003°06'713.7
2017-Sep-17 13:01N 49°58' W 002°55'714.3
2017-Sep-17 12:31N 50°00' W 002°45'2515.5
2017-Sep-17 10:52N 50°07' W 002°07'615.8
2017-Sep-17 10:31N 50°09' W 001°58'815.4
2017-Sep-17 10:00N 50°11' W 001°47'714.7
2017-Sep-17 09:30N 50°13' W 001°36'713.9
2017-Sep-17 09:01N 50°14' W 001°25'713.1
2017-Sep-17 08:31N 50°16' W 001°15'3111.0
2017-Sep-17 05:40N 50°25' W 000°28'210.6
2017-Sep-17 05:30N 50°25' W 000°25'510.9
2017-Sep-17 05:00N 50°26' W 000°17'611.6
2017-Sep-17 04:30N 50°28' W 000°08'612.0
2017-Sep-17 04:00N 50°30' E 000°01'612.6
2017-Sep-17 03:30N 50°31' E 000°10'713.1
2017-Sep-17 03:00N 50°33' E 000°20'713.6
2017-Sep-17 02:29N 50°35' E 000°31'713.5
2017-Sep-17 02:00N 50°38' E 000°40'713.8
2017-Sep-17 01:30N 50°43' E 000°48'713.7
2017-Sep-17 01:00N 50°47' E 000°56'713.3
2017-Sep-17 00:30N 50°52' E 001°04'612.9
2017-Sep-17 00:00N 50°56' E 001°12'612.3
2017-Sep-16 23:30N 50°60' E 001°19'611.7
2017-Sep-16 23:00N 51°04' E 001°27'511.0
2017-Sep-16 22:30N 51°07' E 001°33'510.5
2017-Sep-16 22:00N 51°10' E 001°40'510.6
2017-Sep-16 21:30N 51°14' E 001°46'511.0
2017-Sep-16 21:00N 51°18' E 001°51'611.5
2017-Sep-16 20:30N 51°23' E 001°57'5 9.0
2017-Sep-16 20:00N 51°24' E 002°04'612.1
2017-Sep-16 19:30N 51°22' E 002°13'611.3
2017-Sep-16 19:00N 51°21' E 002°22'612.7
2017-Sep-16 18:30N 51°23' E 002°32'612.6
2017-Sep-16 18:00N 51°23' E 002°42'510.0
2017-Sep-16 17:30N 51°25' E 002°49'713.0
2017-Sep-16 17:00N 51°25' E 002°60'713.2
2017-Sep-16 16:30N 51°24' E 003°10'713.7
2017-Sep-16 16:00N 51°24' E 003°21'713.2
2017-Sep-16 15:30N 51°25' E 003°32'5 9.9
2017-Sep-16 15:00N 51°26' E 003°40'612.9
2017-Sep-16 14:31N 51°22' E 003°46'713.2
2017-Sep-16 14:01N 51°23' E 003°57'4 7.0
2017-Sep-16 13:30N 51°24' E 004°02'510.7
2017-Sep-16 13:00N 51°24' E 004°11'5 9.1
2017-Sep-16 12:30N 51°21' E 004°16'1 1.1
2017-Sep-16 12:00N 51°21' E 004°17'0 0.0
2017-Sep-16 11:31N 51°21' E 004°17'0 0.2
2017-Sep-16 11:00N 51°21' E 004°17'0 0.3
2017-Sep-16 09:45N 51°20' E 004°18'0 0.0
2017-Sep-16 09:21N 51°20' E 004°18'0 0.0
2017-Sep-16 07:30N 51°20' E 004°18'0 0.0
2017-Sep-16 06:39N 51°20' E 004°18'0 0.0
2017-Sep-16 05:42N 51°20' E 004°18'0 0.0
2017-Sep-16 05:30N 51°20' E 004°18'0 0.0
2017-Sep-16 04:57N 51°20' E 004°18'0 0.0
2017-Sep-16 03:51N 51°20' E 004°18'0 0.0
2017-Sep-16 03:21N 51°20' E 004°18'0 0.0
2017-Sep-16 02:51N 51°20' E 004°18'0 0.0
2017-Sep-16 02:24N 51°20' E 004°18'0 0.0
2017-Sep-16 01:57N 51°20' E 004°18'0 0.0
2017-Sep-16 01:27N 51°20' E 004°18'0 0.0
2017-Sep-16 01:00N 51°20' E 004°18'0 0.0
2017-Sep-16 00:30N 51°20' E 004°18'0 0.0
2017-Sep-15 23:57N 51°20' E 004°18'0 0.0
2017-Sep-15 23:30N 51°20' E 004°18'0 0.0
2017-Sep-15 22:57N 51°20' E 004°18'0 0.0
2017-Sep-15 22:27N 51°20' E 004°18'0 0.0
2017-Sep-15 21:21N 51°20' E 004°18'0 0.0
2017-Sep-15 20:51N 51°20' E 004°18'0 0.0
2017-Sep-15 20:21N 51°20' E 004°18'0 0.0
2017-Sep-15 19:48N 51°20' E 004°18'0 0.0
2017-Sep-15 19:24N 51°20' E 004°18'0 0.0
2017-Sep-15 16:54N 51°20' E 004°18'0 0.0
2017-Sep-15 15:54N 51°20' E 004°18'0 0.0
2017-Sep-15 15:21N 51°20' E 004°18'0 0.0
2017-Sep-15 15:00N 51°20' E 004°18'0 0.0
2017-Sep-15 14:24N 51°20' E 004°18'0 0.0
2017-Sep-15 14:00N 51°20' E 004°18'0 0.0
2017-Sep-15 13:21N 51°20' E 004°18'0 0.0
2017-Sep-15 13:00N 51°20' E 004°18'0 0.0
2017-Sep-15 12:24N 51°20' E 004°18'0 0.0
2017-Sep-15 11:45N 51°20' E 004°18'0 0.0
2017-Sep-15 11:27N 51°20' E 004°18'0 0.0
2017-Sep-15 10:27N 51°20' E 004°18'0 0.0
2017-Sep-15 09:57N 51°20' E 004°18'0 0.0
2017-Sep-15 09:30N 51°20' E 004°18'0 0.0
2017-Sep-15 08:54N 51°20' E 004°18'0 0.0
2017-Sep-15 07:57N 51°20' E 004°18'0 0.0
2017-Sep-15 07:24N 51°20' E 004°18'0 0.0
2017-Sep-15 06:57N 51°20' E 004°18'0 0.0
2017-Sep-15 06:30N 51°20' E 004°18'0 0.0
2017-Sep-15 06:00N 51°20' E 004°18'0 0.0
2017-Sep-15 05:27N 51°20' E 004°18'0 0.0
2017-Sep-15 05:00N 51°20' E 004°18'0 0.0
2017-Sep-15 04:21N 51°20' E 004°18'0 0.0
2017-Sep-15 03:54N 51°20' E 004°18'0 0.0
2017-Sep-15 03:27N 51°20' E 004°18'0 0.0
2017-Sep-15 03:00N 51°20' E 004°18'0 0.0
2017-Sep-15 02:27N 51°20' E 004°18'0 0.0
2017-Sep-15 01:57N 51°20' E 004°18'0 0.0
2017-Sep-15 01:27N 51°20' E 004°18'0 0.0
2017-Sep-15 00:54N 51°20' E 004°18'0 0.0
2017-Sep-15 00:30N 51°20' E 004°18'0 0.0
2017-Sep-14 23:57N 51°20' E 004°18'0 0.0
2017-Sep-14 23:27N 51°20' E 004°18'0 0.0
2017-Sep-14 23:00N 51°20' E 004°18'0 0.0
2017-Sep-14 22:24N 51°20' E 004°18'0 0.0
2017-Sep-14 22:00N 51°20' E 004°18'0 0.0
2017-Sep-14 21:30N 51°20' E 004°18'0 0.0
2017-Sep-14 21:00N 51°20' E 004°18'0 0.0
2017-Sep-14 20:30N 51°20' E 004°18'0 0.0
2017-Sep-14 20:00N 51°20' E 004°18'0 0.0
2017-Sep-14 19:24N 51°20' E 004°18'0 0.0
2017-Sep-14 18:57N 51°20' E 004°18'0 0.0
2017-Sep-14 18:24N 51°20' E 004°18'0 0.0
2017-Sep-14 17:54N 51°20' E 004°18'0 0.0
2017-Sep-14 17:21N 51°20' E 004°18'0 0.0
2017-Sep-14 16:54N 51°20' E 004°18'0 0.0
2017-Sep-14 16:27N 51°20' E 004°18'0 0.0
2017-Sep-14 15:57N 51°20' E 004°18'0 0.0
2017-Sep-14 15:30N 51°20' E 004°18'0 0.0
2017-Sep-14 15:00N 51°20' E 004°18'0 0.0
2017-Sep-14 14:18N 51°20' E 004°18'0 0.0
2017-Sep-14 14:00N 51°20' E 004°18'0 0.0
2017-Sep-14 13:21N 51°20' E 004°18'0 0.0
2017-Sep-14 12:57N 51°20' E 004°18'0 0.0
2017-Sep-14 11:48N 51°20' E 004°18'0 0.0
2017-Sep-14 11:24N 51°20' E 004°18'0 0.0
2017-Sep-14 10:39N 51°20' E 004°18'0 0.0
2017-Sep-14 10:27N 51°20' E 004°18'0 0.0
2017-Sep-14 09:54N 51°20' E 004°18'0 0.0
2017-Sep-14 09:30N 51°20' E 004°18'0 0.0
2017-Sep-14 07:57N 51°20' E 004°18'0 0.0
2017-Sep-14 07:27N 51°20' E 004°18'0 0.0
2017-Sep-14 06:57N 51°20' E 004°18'0 0.0
2017-Sep-14 06:24N 51°20' E 004°18'0 0.0
2017-Sep-14 05:54N 51°20' E 004°18'0 0.0
2017-Sep-14 05:18N 51°20' E 004°18'0 0.0
2017-Sep-14 04:51N 51°20' E 004°18'0 0.0
2017-Sep-14 04:27N 51°20' E 004°18'0 0.0
2017-Sep-14 04:00N 51°20' E 004°18'0 0.0
2017-Sep-14 03:31N 51°20' E 004°18'0 0.0
2017-Sep-14 03:00N 51°20' E 004°18'0 0.2
2017-Sep-14 02:30N 51°20' E 004°18'1 1.2
2017-Sep-14 02:01N 51°21' E 004°17'0 0.0
2017-Sep-14 01:31N 51°21' E 004°17'0 0.0
2017-Sep-14 01:01N 51°21' E 004°17'2 3.2
2017-Sep-14 00:30N 51°21' E 004°15'3 7.0
2017-Sep-14 00:01N 51°23' E 004°10'4 8.6
2017-Sep-13 23:31N 51°22' E 004°04'4 8.6
2017-Sep-13 23:00N 51°26' E 004°00'4 8.8
2017-Sep-13 22:30N 51°22' E 003°56'4 8.5
2017-Sep-13 22:01N 51°21' E 003°50'4 8.9
2017-Sep-13 21:30N 51°23' E 003°44'4 8.5
2017-Sep-13 21:01N 51°26' E 003°40'3 6.9
2017-Sep-13 20:31N 51°25' E 003°35'5 9.8
2017-Sep-13 20:01N 51°25' E 003°27'713.9
2017-Sep-13 19:30N 51°24' E 003°16'714.3
2017-Sep-13 19:00N 51°24' E 003°04'714.8
2017-Sep-13 18:30N 51°22' E 002°53'611.3
2017-Sep-13 18:00N 51°22' E 002°44'713.5
2017-Sep-13 17:30N 51°22' E 002°33'714.7
2017-Sep-13 17:00N 51°20' E 002°22'816.0
2017-Sep-13 16:30N 51°16' E 002°11'816.0
2017-Sep-13 16:00N 51°12' E 001°59'815.9
2017-Sep-13 15:30N 51°08' E 001°49'815.8
2017-Sep-13 15:00N 51°03' E 001°39'815.5
2017-Sep-13 14:30N 50°57' E 001°31'814.8
2017-Sep-13 14:00N 50°50' E 001°27'814.4
2017-Sep-13 13:27N 50°43' E 001°23'1314.8
2017-Sep-13 12:34N 50°34' E 001°07'614.7
2017-Sep-13 12:08N 50°30' E 000°59'215.3
2017-Sep-13 12:00N 50°29' E 000°56'815.3
2017-Sep-13 11:30N 50°28' E 000°44'815.2
2017-Sep-13 10:58N 50°25' E 000°32'715.0
2017-Sep-13 10:30N 50°23' E 000°22'714.7
2017-Sep-13 10:00N 50°21' E 000°11'714.2
2017-Sep-13 09:30N 50°19' E 000°00'713.9
2017-Sep-13 09:00N 50°16' W 000°10'713.5
2017-Sep-13 08:31N 50°14' W 000°20'1812.7
2017-Sep-13 07:04N 50°10' W 000°47'112.3
2017-Sep-13 06:58N 50°10' W 000°49'612.2
2017-Sep-13 06:30N 50°08' W 000°58'612.2
2017-Sep-13 06:00N 50°07' W 001°07'612.4
2017-Sep-13 05:30N 50°06' W 001°17'612.6
2017-Sep-13 05:00N 50°05' W 001°26'612.9
2017-Sep-13 04:30N 50°03' W 001°36'713.6
2017-Sep-13 04:01N 50°01' W 001°46'714.2
2017-Sep-13 03:31N 49°59' W 001°57'714.7
2017-Sep-13 03:00N 49°57' W 002°07'2015.3
2017-Sep-13 01:42N 49°52' W 002°38'315.6
2017-Sep-13 01:30N 49°51' W 002°42'815.4
2017-Sep-13 01:00N 49°49' W 002°54'815.5
2017-Sep-13 00:31N 49°47' W 003°05'815.4
2017-Sep-13 00:00N 49°44' W 003°17'815.4
2017-Sep-12 23:30N 49°42' W 003°28'815.4
2017-Sep-12 23:00N 49°40' W 003°39'815.4
2017-Sep-12 22:30N 49°38' W 003°51'815.4
2017-Sep-12 22:00N 49°36' W 004°02'815.6
2017-Sep-12 21:30N 49°34' W 004°14'815.6
2017-Sep-12 21:00N 49°31' W 004°26'815.7
2017-Sep-12 20:30N 49°29' W 004°37'815.6
2017-Sep-12 19:59N 49°27' W 004°49'  
Track history (hours):
 
Tides and Currents Weather Stations Pressure Air Temp Water Temp Dewpoint Dewpoint Depression Visibility Wind Speed Wind Dir Waves Ship Positions

Antikeros

Last reported at 2017-Sep-22 01:30 UTC. Time now 2017-Sep-24 05:00 UTC.
Position N 38°54' W 030°39'.

Length 228 m; draft 12.1 m.

Type: Tanker. MMSI: 240680000.

Date/timePositionNaut miles runAvg speedWind from/ knotsBaromVisibWave heightAir tempDewpointWater temp
2017-Sep-22 01:30N 38°54' W 030°39'812.0
2017-Sep-22 00:51N 38°58' W 030°30'412.3
2017-Sep-22 00:31N 39°00' W 030°26'612.6
2017-Sep-22 00:00N 39°03' W 030°19'612.5
2017-Sep-21 23:30N 39°07' W 030°12'612.3
2017-Sep-21 23:00N 39°10' W 030°05'612.6
2017-Sep-21 22:30N 39°13' W 029°58'612.9
2017-Sep-21 22:00N 39°17' W 029°51'613.0
2017-Sep-21 21:30N 39°20' W 029°44'612.8
2017-Sep-21 21:00N 39°23' W 029°37'612.8
2017-Sep-21 20:30N 39°26' W 029°30'612.9
2017-Sep-21 20:00N 39°30' W 029°23'612.7
2017-Sep-21 19:30N 39°33' W 029°15'612.8
2017-Sep-21 19:00N 39°36' W 029°08'612.5
2017-Sep-21 18:30N 39°39' W 029°01'612.6
2017-Sep-21 18:00N 39°43' W 028°54'612.8
2017-Sep-21 17:30N 39°46' W 028°47'612.5
2017-Sep-21 17:00N 39°49' W 028°40'713.0
2017-Sep-21 16:30N 39°52' W 028°33'713.0
2017-Sep-21 15:58N 39°56' W 028°25'612.7
2017-Sep-21 15:30N 39°59' W 028°18'1112.3
2017-Sep-21 14:36N 40°05' W 028°06'  
2017-Sep-17 17:03N 49°46' W 004°10'112.2
2017-Sep-17 17:00N 49°46' W 004°09'612.1
2017-Sep-17 16:31N 49°47' W 003°60'510.9
2017-Sep-17 16:01N 49°49' W 003°52'611.2
2017-Sep-17 15:31N 49°50' W 003°43'612.0
2017-Sep-17 15:01N 49°52' W 003°34'612.2
2017-Sep-17 14:30N 49°53' W 003°25'612.6
2017-Sep-17 14:00N 49°55' W 003°15'713.0
2017-Sep-17 13:30N 49°57' W 003°06'713.7
2017-Sep-17 13:01N 49°58' W 002°55'714.3
2017-Sep-17 12:31N 50°00' W 002°45'2515.5
2017-Sep-17 10:52N 50°07' W 002°07'615.8
2017-Sep-17 10:31N 50°09' W 001°58'815.4
2017-Sep-17 10:00N 50°11' W 001°47'714.7
2017-Sep-17 09:30N 50°13' W 001°36'713.9
2017-Sep-17 09:01N 50°14' W 001°25'713.1
2017-Sep-17 08:31N 50°16' W 001°15'3111.0
2017-Sep-17 05:40N 50°25' W 000°28'210.6
2017-Sep-17 05:30N 50°25' W 000°25'510.9
2017-Sep-17 05:00N 50°26' W 000°17'611.6
2017-Sep-17 04:30N 50°28' W 000°08'612.0
2017-Sep-17 04:00N 50°30' E 000°01'612.6
2017-Sep-17 03:30N 50°31' E 000°10'713.1
2017-Sep-17 03:00N 50°33' E 000°20'713.6
2017-Sep-17 02:29N 50°35' E 000°31'713.5
2017-Sep-17 02:00N 50°38' E 000°40'713.8
2017-Sep-17 01:30N 50°43' E 000°48'713.7
2017-Sep-17 01:00N 50°47' E 000°56'713.3
2017-Sep-17 00:30N 50°52' E 001°04'612.9
2017-Sep-17 00:00N 50°56' E 001°12'612.3
2017-Sep-16 23:30N 50°60' E 001°19'611.7
2017-Sep-16 23:00N 51°04' E 001°27'511.0
2017-Sep-16 22:30N 51°07' E 001°33'510.5
2017-Sep-16 22:00N 51°10' E 001°40'510.6
2017-Sep-16 21:30N 51°14' E 001°46'511.0
2017-Sep-16 21:00N 51°18' E 001°51'611.5
2017-Sep-16 20:30N 51°23' E 001°57'5 9.0
2017-Sep-16 20:00N 51°24' E 002°04'612.1
2017-Sep-16 19:30N 51°22' E 002°13'611.3
2017-Sep-16 19:00N 51°21' E 002°22'612.7
2017-Sep-16 18:30N 51°23' E 002°32'612.6
2017-Sep-16 18:00N 51°23' E 002°42'510.0
2017-Sep-16 17:30N 51°25' E 002°49'713.0
2017-Sep-16 17:00N 51°25' E 002°60'713.2
2017-Sep-16 16:30N 51°24' E 003°10'713.7
2017-Sep-16 16:00N 51°24' E 003°21'713.2
2017-Sep-16 15:30N 51°25' E 003°32'5 9.9
2017-Sep-16 15:00N 51°26' E 003°40'612.9
2017-Sep-16 14:31N 51°22' E 003°46'713.2
2017-Sep-16 14:01N 51°23' E 003°57'4 7.0
2017-Sep-16 13:30N 51°24' E 004°02'510.7
2017-Sep-16 13:00N 51°24' E 004°11'5 9.1
2017-Sep-16 12:30N 51°21' E 004°16'1 1.1
2017-Sep-16 12:00N 51°21' E 004°17'0 0.0
2017-Sep-16 11:31N 51°21' E 004°17'0 0.2
2017-Sep-16 11:00N 51°21' E 004°17'0 0.3
2017-Sep-16 09:45N 51°20' E 004°18'0 0.0
2017-Sep-16 09:21N 51°20' E 004°18'0 0.0
2017-Sep-16 07:30N 51°20' E 004°18'0 0.0
2017-Sep-16 06:39N 51°20' E 004°18'0 0.0
2017-Sep-16 05:42N 51°20' E 004°18'0 0.0
2017-Sep-16 05:30N 51°20' E 004°18'0 0.0
2017-Sep-16 04:57N 51°20' E 004°18'0 0.0
2017-Sep-16 03:51N 51°20' E 004°18'0 0.0
2017-Sep-16 03:21N 51°20' E 004°18'0 0.0
2017-Sep-16 02:51N 51°20' E 004°18'0 0.0
2017-Sep-16 02:24N 51°20' E 004°18'0 0.0
2017-Sep-16 01:57N 51°20' E 004°18'0 0.0
2017-Sep-16 01:27N 51°20' E 004°18'0 0.0
2017-Sep-16 01:00N 51°20' E 004°18'0 0.0
2017-Sep-16 00:30N 51°20' E 004°18'0 0.0
2017-Sep-15 23:57N 51°20' E 004°18'0 0.0
2017-Sep-15 23:30N 51°20' E 004°18'0 0.0
2017-Sep-15 22:57N 51°20' E 004°18'0 0.0
2017-Sep-15 22:27N 51°20' E 004°18'0 0.0
2017-Sep-15 21:21N 51°20' E 004°18'0 0.0
2017-Sep-15 20:51N 51°20' E 004°18'0 0.0
2017-Sep-15 20:21N 51°20' E 004°18'0 0.0
2017-Sep-15 19:48N 51°20' E 004°18'0 0.0
2017-Sep-15 19:24N 51°20' E 004°18'0 0.0
2017-Sep-15 16:54N 51°20' E 004°18'0 0.0
2017-Sep-15 15:54N 51°20' E 004°18'0 0.0
2017-Sep-15 15:21N 51°20' E 004°18'0 0.0
2017-Sep-15 15:00N 51°20' E 004°18'0 0.0
2017-Sep-15 14:24N 51°20' E 004°18'0 0.0
2017-Sep-15 14:00N 51°20' E 004°18'0 0.0
2017-Sep-15 13:21N 51°20' E 004°18'0 0.0
2017-Sep-15 13:00N 51°20' E 004°18'0 0.0
2017-Sep-15 12:24N 51°20' E 004°18'0 0.0
2017-Sep-15 11:45N 51°20' E 004°18'0 0.0
2017-Sep-15 11:27N 51°20' E 004°18'0 0.0
2017-Sep-15 10:27N 51°20' E 004°18'0 0.0
2017-Sep-15 09:57N 51°20' E 004°18'0 0.0
2017-Sep-15 09:30N 51°20' E 004°18'0 0.0
2017-Sep-15 08:54N 51°20' E 004°18'0 0.0
2017-Sep-15 07:57N 51°20' E 004°18'0 0.0
2017-Sep-15 07:24N 51°20' E 004°18'0 0.0
2017-Sep-15 06:57N 51°20' E 004°18'0 0.0
2017-Sep-15 06:30N 51°20' E 004°18'0 0.0
2017-Sep-15 06:00N 51°20' E 004°18'0 0.0
2017-Sep-15 05:27N 51°20' E 004°18'0 0.0
2017-Sep-15 05:00N 51°20' E 004°18'0 0.0
2017-Sep-15 04:21N 51°20' E 004°18'0 0.0
2017-Sep-15 03:54N 51°20' E 004°18'0 0.0
2017-Sep-15 03:27N 51°20' E 004°18'0 0.0
2017-Sep-15 03:00N 51°20' E 004°18'0 0.0
2017-Sep-15 02:27N 51°20' E 004°18'0 0.0
2017-Sep-15 01:57N 51°20' E 004°18'0 0.0
2017-Sep-15 01:27N 51°20' E 004°18'0 0.0
2017-Sep-15 00:54N 51°20' E 004°18'0 0.0
2017-Sep-15 00:30N 51°20' E 004°18'0 0.0
2017-Sep-14 23:57N 51°20' E 004°18'0 0.0
2017-Sep-14 23:27N 51°20' E 004°18'0 0.0
2017-Sep-14 23:00N 51°20' E 004°18'0 0.0
2017-Sep-14 22:24N 51°20' E 004°18'0 0.0
2017-Sep-14 22:00N 51°20' E 004°18'0 0.0
2017-Sep-14 21:30N 51°20' E 004°18'0 0.0
2017-Sep-14 21:00N 51°20' E 004°18'0 0.0
2017-Sep-14 20:30N 51°20' E 004°18'0 0.0
2017-Sep-14 20:00N 51°20' E 004°18'0 0.0
2017-Sep-14 19:24N 51°20' E 004°18'0 0.0
2017-Sep-14 18:57N 51°20' E 004°18'0 0.0
2017-Sep-14 18:24N 51°20' E 004°18'0 0.0
2017-Sep-14 17:54N 51°20' E 004°18'0 0.0
2017-Sep-14 17:21N 51°20' E 004°18'0 0.0
2017-Sep-14 16:54N 51°20' E 004°18'0 0.0
2017-Sep-14 16:27N 51°20' E 004°18'0 0.0
2017-Sep-14 15:57N 51°20' E 004°18'0 0.0
2017-Sep-14 15:30N 51°20' E 004°18'0 0.0
2017-Sep-14 15:00N 51°20' E 004°18'0 0.0
2017-Sep-14 14:18N 51°20' E 004°18'0 0.0
2017-Sep-14 14:00N 51°20' E 004°18'0 0.0
2017-Sep-14 13:21N 51°20' E 004°18'0 0.0
2017-Sep-14 12:57N 51°20' E 004°18'0 0.0
2017-Sep-14 11:48N 51°20' E 004°18'0 0.0
2017-Sep-14 11:24N 51°20' E 004°18'0 0.0
2017-Sep-14 10:39N 51°20' E 004°18'0 0.0
2017-Sep-14 10:27N 51°20' E 004°18'0 0.0
2017-Sep-14 09:54N 51°20' E 004°18'0 0.0
2017-Sep-14 09:30N 51°20' E 004°18'0 0.0
2017-Sep-14 07:57N 51°20' E 004°18'0 0.0
2017-Sep-14 07:27N 51°20' E 004°18'0 0.0
2017-Sep-14 06:57N 51°20' E 004°18'0 0.0
2017-Sep-14 06:24N 51°20' E 004°18'0 0.0
2017-Sep-14 05:54N 51°20' E 004°18'0 0.0
2017-Sep-14 05:18N 51°20' E 004°18'0 0.0
2017-Sep-14 04:51N 51°20' E 004°18'0 0.0
2017-Sep-14 04:27N 51°20' E 004°18'0 0.0
2017-Sep-14 04:00N 51°20' E 004°18'0 0.0
2017-Sep-14 03:31N 51°20' E 004°18'0 0.0
2017-Sep-14 03:00N 51°20' E 004°18'0 0.2
2017-Sep-14 02:30N 51°20' E 004°18'1 1.2
2017-Sep-14 02:01N 51°21' E 004°17'0 0.0
2017-Sep-14 01:31N 51°21' E 004°17'0 0.0
2017-Sep-14 01:01N 51°21' E 004°17'2 3.2
2017-Sep-14 00:30N 51°21' E 004°15'3 7.0
2017-Sep-14 00:01N 51°23' E 004°10'4 8.6
2017-Sep-13 23:31N 51°22' E 004°04'4 8.6
2017-Sep-13 23:00N 51°26' E 004°00'4 8.8
2017-Sep-13 22:30N 51°22' E 003°56'4 8.5
2017-Sep-13 22:01N 51°21' E 003°50'4 8.9
2017-Sep-13 21:30N 51°23' E 003°44'4 8.5
2017-Sep-13 21:01N 51°26' E 003°40'3 6.9
2017-Sep-13 20:31N 51°25' E 003°35'5 9.8
2017-Sep-13 20:01N 51°25' E 003°27'713.9
2017-Sep-13 19:30N 51°24' E 003°16'714.3
2017-Sep-13 19:00N 51°24' E 003°04'714.8
2017-Sep-13 18:30N 51°22' E 002°53'611.3
2017-Sep-13 18:00N 51°22' E 002°44'713.5
2017-Sep-13 17:30N 51°22' E 002°33'714.7
2017-Sep-13 17:00N 51°20' E 002°22'816.0
2017-Sep-13 16:30N 51°16' E 002°11'816.0
2017-Sep-13 16:00N 51°12' E 001°59'815.9
2017-Sep-13 15:30N 51°08' E 001°49'815.8
2017-Sep-13 15:00N 51°03' E 001°39'815.5
2017-Sep-13 14:30N 50°57' E 001°31'814.8
2017-Sep-13 14:00N 50°50' E 001°27'814.4
2017-Sep-13 13:27N 50°43' E 001°23'1314.8
2017-Sep-13 12:34N 50°34' E 001°07'614.7
2017-Sep-13 12:08N 50°30' E 000°59'215.3
2017-Sep-13 12:00N 50°29' E 000°56'815.3
2017-Sep-13 11:30N 50°28' E 000°44'815.2
2017-Sep-13 10:58N 50°25' E 000°32'715.0
2017-Sep-13 10:30N 50°23' E 000°22'714.7
2017-Sep-13 10:00N 50°21' E 000°11'714.2
2017-Sep-13 09:30N 50°19' E 000°00'713.9
2017-Sep-13 09:00N 50°16' W 000°10'713.5
2017-Sep-13 08:31N 50°14' W 000°20'1812.7
2017-Sep-13 07:04N 50°10' W 000°47'112.3
2017-Sep-13 06:58N 50°10' W 000°49'612.2
2017-Sep-13 06:30N 50°08' W 000°58'612.2
2017-Sep-13 06:00N 50°07' W 001°07'612.4
2017-Sep-13 05:30N 50°06' W 001°17'612.6
2017-Sep-13 05:00N 50°05' W 001°26'612.9
2017-Sep-13 04:30N 50°03' W 001°36'713.6
2017-Sep-13 04:01N 50°01' W 001°46'714.2
2017-Sep-13 03:31N 49°59' W 001°57'714.7
2017-Sep-13 03:00N 49°57' W 002°07'2015.3
2017-Sep-13 01:42N 49°52' W 002°38'315.6
2017-Sep-13 01:30N 49°51' W 002°42'815.4
2017-Sep-13 01:00N 49°49' W 002°54'815.5
2017-Sep-13 00:31N 49°47' W 003°05'815.4
2017-Sep-13 00:00N 49°44' W 003°17'815.4
2017-Sep-12 23:30N 49°42' W 003°28'815.4
2017-Sep-12 23:00N 49°40' W 003°39'815.4
2017-Sep-12 22:30N 49°38' W 003°51'815.4
2017-Sep-12 22:00N 49°36' W 004°02'815.6
2017-Sep-12 21:30N 49°34' W 004°14'815.6
2017-Sep-12 21:00N 49°31' W 004°26'815.7
2017-Sep-12 20:30N 49°29' W 004°37'815.6
2017-Sep-12 19:59N 49°27' W 004°49'  

Dump ship's entire track history